Аэропорт: Жезказган. Жезказган

ICAO: UAKD

METAR:
2018/11/21 13:00
UAKD 211300Z 14005MPS 9999 BKN021 OVC100 M03/M04 Q1014 R22/1///63 NOSIG RMK QFE727/0970
METAR:
2017/04/10 09:39
TAF TAF UAKD 101100Z 1009/1021 16012MPS 9999 SCT100